createdAt,value
2022-12-08T00:01:18.581Z,25.15
2022-12-08T00:03:45.427Z,26.48
2022-12-08T00:06:45.844Z,28.52
2022-12-08T00:09:24.621Z,33.60
2022-12-08T00:11:56.941Z,28.33
2022-12-08T00:14:37.747Z,24.47
2022-12-08T00:17:06.406Z,27.45
2022-12-08T00:19:33.500Z,23.48
2022-12-08T00:22:00.437Z,31.48
2022-12-08T00:24:31.794Z,26.92
2022-12-08T00:26:58.602Z,25.50
2022-12-08T00:29:25.310Z,25.33
2022-12-08T00:31:52.057Z,29.35
2022-12-08T00:34:18.927Z,23.13
2022-12-08T00:36:45.890Z,24.42
2022-12-08T00:39:13.503Z,24.73
2022-12-08T00:41:58.899Z,20.60
2022-12-08T00:44:25.644Z,21.80
2022-12-08T00:46:52.355Z,24.50
2022-12-08T00:49:19.237Z,23.55
2022-12-08T00:51:46.395Z,26.88
2022-12-08T00:54:13.245Z,24.45
2022-12-08T00:56:39.965Z,26.02
2022-12-08T00:59:07.489Z,28.20
2022-12-08T01:01:35.601Z,26.08
2022-12-08T01:04:04.494Z,24.00
2022-12-08T01:06:31.479Z,23.63
2022-12-08T01:08:58.294Z,24.10
2022-12-08T01:11:25.013Z,24.08
2022-12-08T01:13:51.848Z,27.23
2022-12-08T01:16:23.316Z,28.13
2022-12-08T01:18:50.078Z,25.77
2022-12-08T01:21:17.497Z,24.80
2022-12-08T01:23:44.462Z,22.35
2022-12-08T01:26:12.984Z,23.80
2022-12-08T01:28:40.516Z,22.55
2022-12-08T01:31:12.476Z,19.95
2022-12-08T01:33:39.898Z,23.85
2022-12-08T01:36:07.546Z,19.95
2022-12-08T01:38:34.281Z,24.67
2022-12-08T01:41:01.085Z,22.30
2022-12-08T01:43:49.444Z,20.00
2022-12-08T01:46:16.183Z,23.50
2022-12-08T01:48:43.090Z,21.55
2022-12-08T01:51:10.122Z,23.50
2022-12-08T01:53:36.940Z,23.73
2022-12-08T01:56:08.079Z,20.48
2022-12-08T01:58:41.642Z,21.33
2022-12-08T02:01:08.783Z,23.13
2022-12-08T02:03:44.359Z,24.73
2022-12-08T02:06:11.758Z,24.73
2022-12-08T02:08:39.394Z,20.63
2022-12-08T02:11:09.443Z,23.92
2022-12-08T02:13:36.240Z,23.75
2022-12-08T02:16:21.490Z,22.52
2022-12-08T02:19:32.158Z,20.80
2022-12-08T02:22:07.189Z,20.92
2022-12-08T02:24:59.235Z,21.88
2022-12-08T02:27:55.081Z,19.70
2022-12-08T02:30:24.761Z,19.55
2022-12-08T02:33:08.815Z,19.63
2022-12-08T02:35:35.509Z,18.17
2022-12-08T02:38:08.094Z,27.60
2022-12-08T02:40:58.817Z,19.77
2022-12-08T02:44:06.729Z,20.75
2022-12-08T02:46:38.686Z,21.48
2022-12-08T02:49:06.229Z,21.90
2022-12-08T02:51:32.973Z,20.88
2022-12-08T02:54:00.725Z,17.08
2022-12-08T02:56:52.321Z,22.83
2022-12-08T02:59:46.130Z,23.63
2022-12-08T03:02:31.173Z,20.00
2022-12-08T03:05:07.937Z,22.50
2022-12-08T03:07:39.179Z,20.42
2022-12-08T03:10:11.177Z,23.25
2022-12-08T03:13:13.930Z,18.08
2022-12-08T03:15:41.860Z,17.58
2022-12-08T03:18:11.164Z,19.00
2022-12-08T03:20:38.812Z,19.70
2022-12-08T03:23:08.946Z,17.42
2022-12-08T03:25:39.389Z,18.63
2022-12-08T03:28:06.258Z,19.98
2022-12-08T03:30:37.269Z,18.58
2022-12-08T03:33:07.554Z,18.65
2022-12-08T03:35:35.909Z,14.90
2022-12-08T03:38:11.378Z,19.10
2022-12-08T03:40:38.344Z,16.02
2022-12-08T03:43:05.124Z,19.13
2022-12-08T03:45:34.288Z,18.27
2022-12-08T03:48:01.042Z,18.58
2022-12-08T03:50:27.781Z,23.25
2022-12-08T03:52:54.505Z,16.52
2022-12-08T03:55:21.536Z,17.40
2022-12-08T03:57:48.251Z,17.80
2022-12-08T04:00:16.024Z,16.58
2022-12-08T04:02:42.830Z,20.25
2022-12-08T04:05:09.632Z,19.42
2022-12-08T04:07:36.492Z,20.65
2022-12-08T04:10:04.284Z,21.45
2022-12-08T04:12:31.287Z,20.42
2022-12-08T04:17:24.811Z,17.67
2022-12-08T04:19:51.598Z,20.65
2022-12-08T04:22:18.467Z,21.38
2022-12-08T04:24:45.346Z,18.73
2022-12-08T04:27:12.066Z,21.30
2022-12-08T04:29:39.003Z,28.65
2022-12-08T04:32:05.735Z,26.83
2022-12-08T04:34:32.510Z,28.70
2022-12-08T04:36:59.196Z,33.17
2022-12-08T04:39:25.922Z,29.10
2022-12-08T04:41:52.823Z,25.38
2022-12-08T04:44:19.547Z,21.63
2022-12-08T04:46:46.368Z,21.27
2022-12-08T04:49:13.227Z,19.90
2022-12-08T04:51:40.015Z,22.38
2022-12-08T04:54:06.741Z,20.13
2022-12-08T04:56:33.483Z,16.95
2022-12-08T04:59:00.207Z,20.45
2022-12-08T05:01:26.972Z,19.23
2022-12-08T05:03:53.902Z,17.27
2022-12-08T05:06:20.684Z,20.45
2022-12-08T05:08:47.403Z,23.70
2022-12-08T05:11:14.565Z,23.85
2022-12-08T05:13:41.451Z,32.63
2022-12-08T05:16:10.603Z,27.38
2022-12-08T05:18:38.159Z,25.58
2022-12-08T05:21:05.885Z,23.60
2022-12-08T05:23:35.700Z,23.35
2022-12-08T05:26:02.603Z,27.27
2022-12-08T05:28:44.824Z,21.75
2022-12-08T05:31:13.356Z,23.75
2022-12-08T05:33:40.100Z,26.00
2022-12-08T05:36:07.800Z,25.17
2022-12-08T05:38:34.521Z,20.67
2022-12-08T05:41:01.245Z,21.05
2022-12-08T05:43:27.976Z,22.83
2022-12-08T05:45:54.837Z,21.00
2022-12-08T05:48:21.580Z,20.27
2022-12-08T05:50:48.933Z,20.85
2022-12-08T05:53:16.694Z,20.13
2022-12-08T05:55:43.737Z,19.13
2022-12-08T05:58:14.134Z,21.63
2022-12-08T06:00:41.432Z,18.98
2022-12-08T06:03:08.783Z,23.38
2022-12-08T06:05:36.106Z,23.98
2022-12-08T06:08:02.931Z,21.65
2022-12-08T06:10:29.897Z,21.45
2022-12-08T06:12:56.873Z,19.13
2022-12-08T06:15:23.593Z,19.25
2022-12-08T06:17:50.332Z,19.92
2022-12-08T06:20:17.125Z,17.92
2022-12-08T06:22:43.904Z,20.70
2022-12-08T06:25:10.684Z,21.42
2022-12-08T06:27:37.391Z,21.77
2022-12-08T06:30:05.170Z,16.60
2022-12-08T06:32:32.076Z,17.10
2022-12-08T06:34:58.792Z,15.68
2022-12-08T06:37:25.472Z,19.20
2022-12-08T06:39:52.182Z,15.98
2022-12-08T06:42:37.608Z,21.98
2022-12-08T06:45:04.705Z,20.10
2022-12-08T06:47:31.460Z,22.75
2022-12-08T06:49:58.657Z,23.13
2022-12-08T06:52:25.332Z,20.27
2022-12-08T06:54:52.176Z,24.17
2022-12-08T06:57:18.921Z,21.27
2022-12-08T06:59:45.545Z,22.60
2022-12-08T07:02:12.323Z,20.58
2022-12-08T07:04:39.277Z,20.70
2022-12-08T07:07:06.072Z,26.38
2022-12-08T07:09:32.771Z,23.58
2022-12-08T07:11:59.452Z,24.00
2022-12-08T07:14:26.209Z,25.98
2022-12-08T07:16:52.870Z,22.10
2022-12-08T07:19:19.594Z,19.75
2022-12-08T07:21:46.405Z,17.15
2022-12-08T07:24:13.419Z,18.95
2022-12-08T07:26:40.945Z,18.45
2022-12-08T07:29:07.823Z,18.08
2022-12-08T07:31:34.576Z,16.85
2022-12-08T07:34:01.317Z,19.80
2022-12-08T07:36:28.124Z,19.20
2022-12-08T07:38:54.847Z,18.85
2022-12-08T07:41:23.897Z,23.88
2022-12-08T07:43:51.046Z,19.55
2022-12-08T07:46:20.733Z,24.95
2022-12-08T07:48:47.768Z,16.95
2022-12-08T07:51:15.488Z,19.10
2022-12-08T07:53:47.200Z,26.83
2022-12-08T07:56:16.681Z,20.70
2022-12-08T07:58:45.760Z,26.15
2022-12-08T08:01:26.920Z,24.00
2022-12-08T08:03:55.423Z,22.88
2022-12-08T08:06:22.678Z,25.42
2022-12-08T08:08:49.449Z,23.25
2022-12-08T08:11:20.939Z,25.15
2022-12-08T08:13:49.673Z,22.43
2022-12-08T08:16:16.874Z,25.45
2022-12-08T08:18:43.644Z,31.83
2022-12-08T08:23:57.256Z,29.55
2022-12-08T08:26:24.001Z,26.27
2022-12-08T08:28:50.650Z,23.77
2022-12-08T08:31:17.377Z,24.67
2022-12-08T08:33:44.051Z,23.15
2022-12-08T08:36:11.457Z,24.75
2022-12-08T08:38:42.761Z,25.30
2022-12-08T08:41:10.545Z,23.02
2022-12-08T08:43:38.641Z,23.63
2022-12-08T08:46:06.491Z,24.48
2022-12-08T08:48:33.615Z,25.13
2022-12-08T08:51:07.759Z,25.70
2022-12-08T08:53:34.511Z,27.30
2022-12-08T08:56:02.943Z,28.65
2022-12-08T08:58:29.830Z,24.58
2022-12-08T09:00:56.549Z,24.33
2022-12-08T09:03:23.256Z,26.40
2022-12-08T09:05:50.448Z,19.23
2022-12-08T09:08:17.488Z,20.70
2022-12-08T09:10:44.360Z,28.42
2022-12-08T09:13:11.018Z,27.73
2022-12-08T09:15:37.765Z,25.38
2022-12-08T09:18:06.722Z,23.77
2022-12-08T09:20:34.804Z,25.42
2022-12-08T09:23:01.434Z,24.35
2022-12-08T09:25:28.868Z,25.27
2022-12-08T09:27:55.491Z,24.35
2022-12-08T09:30:22.234Z,23.02
2022-12-08T09:32:49.109Z,25.33
2022-12-08T09:35:15.778Z,32.10
2022-12-08T09:37:42.489Z,28.17
2022-12-08T09:40:11.947Z,29.27
2022-12-08T09:42:42.323Z,24.70
2022-12-08T09:45:13.210Z,23.63
2022-12-08T09:47:42.944Z,20.88
2022-12-08T09:50:18.200Z,22.70
2022-12-08T09:52:49.958Z,24.92
2022-12-08T09:55:29.627Z,25.67
2022-12-08T09:58:02.193Z,24.75
2022-12-08T10:00:28.976Z,26.08
2022-12-08T10:02:57.428Z,24.92
2022-12-08T10:05:25.746Z,21.35
2022-12-08T10:08:19.987Z,22.02
2022-12-08T10:11:00.155Z,22.08
2022-12-08T10:13:56.530Z,23.85
2022-12-08T10:16:30.367Z,20.42
2022-12-08T10:19:18.441Z,26.42
2022-12-08T10:21:45.518Z,27.88
2022-12-08T10:24:34.780Z,24.73
2022-12-08T10:27:01.833Z,24.13
2022-12-08T10:29:28.500Z,22.67
2022-12-08T10:31:57.517Z,24.58
2022-12-08T10:34:24.914Z,24.75
2022-12-08T10:36:54.273Z,27.40
2022-12-08T10:39:43.713Z,23.10
2022-12-08T10:42:19.131Z,29.40
2022-12-08T10:44:57.934Z,25.98
2022-12-08T10:47:26.545Z,23.85
2022-12-08T10:50:10.759Z,26.70
2022-12-08T10:52:40.980Z,26.48
2022-12-08T10:55:18.748Z,20.80
2022-12-08T10:57:45.835Z,22.95
2022-12-08T11:00:14.836Z,25.42
2022-12-08T11:03:02.467Z,22.00
2022-12-08T11:05:33.119Z,24.25
2022-12-08T11:08:00.017Z,18.67
2022-12-08T11:10:42.850Z,19.90
2022-12-08T11:13:26.112Z,19.15
2022-12-08T11:15:54.902Z,17.77
2022-12-08T11:18:41.049Z,18.60
2022-12-08T11:21:12.942Z,18.65
2022-12-08T11:23:41.908Z,19.13
2022-12-08T11:26:27.653Z,17.63
2022-12-08T11:28:54.872Z,23.75
2022-12-08T11:31:32.311Z,17.90
2022-12-08T11:33:59.062Z,17.13
2022-12-08T11:36:27.386Z,17.88
2022-12-08T11:38:57.402Z,19.52
2022-12-08T11:41:27.451Z,20.48
2022-12-08T11:44:31.200Z,17.25
2022-12-08T11:47:39.898Z,20.25
2022-12-08T11:50:21.130Z,19.52
2022-12-08T11:52:50.314Z,15.88
2022-12-08T11:55:36.945Z,17.70
2022-12-08T11:58:18.863Z,16.83
2022-12-08T12:00:45.719Z,15.80
2022-12-08T12:03:18.806Z,16.80
2022-12-08T12:09:19.644Z,20.58
2022-12-08T12:12:16.550Z,19.35
2022-12-08T12:15:12.629Z,17.73
2022-12-08T12:17:53.069Z,20.50
2022-12-08T12:20:23.990Z,17.80
2022-12-08T12:23:02.528Z,20.27
2022-12-08T12:25:29.348Z,18.52
2022-12-08T12:28:00.303Z,17.67
2022-12-08T12:30:29.124Z,17.50
2022-12-08T12:33:00.759Z,17.05
2022-12-08T12:35:41.941Z,17.15
2022-12-08T12:38:45.773Z,18.63
2022-12-08T12:43:39.616Z,14.63
2022-12-08T12:46:27.669Z,18.10
2022-12-08T12:49:33.242Z,14.60
2022-12-08T12:52:00.088Z,15.60
2022-12-08T12:54:28.094Z,17.05
2022-12-08T12:56:57.135Z,18.02
2022-12-08T12:59:43.422Z,16.95
2022-12-08T13:02:26.167Z,16.02
2022-12-08T13:05:26.401Z,15.43
2022-12-08T13:07:56.260Z,13.85
2022-12-08T13:10:31.377Z,16.02
2022-12-08T13:13:10.545Z,15.10
2022-12-08T13:15:38.916Z,17.58
2022-12-08T13:18:24.385Z,14.70
2022-12-08T13:21:20.144Z,14.60
2022-12-08T13:23:50.083Z,12.75
2022-12-08T13:26:25.380Z,14.90
2022-12-08T13:29:04.171Z,15.85
2022-12-08T13:31:45.061Z,12.32
2022-12-08T13:34:55.077Z,12.70
2022-12-08T13:37:54.309Z,15.57
2022-12-08T13:40:25.684Z,15.00
2022-12-08T13:43:15.280Z,14.05
2022-12-08T13:49:36.547Z,13.93
2022-12-08T13:57:11.556Z,14.50
2022-12-08T13:59:44.273Z,18.95
2022-12-08T14:02:18.985Z,15.13
2022-12-08T14:05:17.028Z,19.52
2022-12-08T14:07:34.037Z,18.50
2022-12-08T14:10:03.653Z,16.58
2022-12-08T14:12:30.886Z,17.20
2022-12-08T14:15:03.670Z,17.13
2022-12-08T14:17:30.964Z,17.85
2022-12-08T14:20:19.145Z,16.40
2022-12-08T14:22:46.611Z,19.25
2022-12-08T14:25:15.274Z,17.30
2022-12-08T14:27:42.232Z,18.42
2022-12-08T14:30:25.348Z,17.08
2022-12-08T14:32:58.335Z,20.35
2022-12-08T14:35:28.177Z,17.88
2022-12-08T14:37:58.520Z,14.82
2022-12-08T14:40:34.885Z,16.27
2022-12-08T14:43:07.636Z,17.67
2022-12-08T14:45:40.317Z,16.15
2022-12-08T14:48:31.514Z,16.67
2022-12-08T14:51:16.225Z,16.83
2022-12-08T14:53:55.807Z,13.75
2022-12-08T14:56:23.455Z,15.57
2022-12-08T14:59:01.907Z,14.95
2022-12-08T15:01:29.208Z,13.90
2022-12-08T15:04:07.714Z,14.18
2022-12-08T15:06:34.776Z,16.70
2022-12-08T15:09:15.872Z,12.30
2022-12-08T15:11:42.629Z,16.77
2022-12-08T15:14:27.408Z,15.32
2022-12-08T15:16:55.295Z,15.15
2022-12-08T15:19:24.243Z,15.50
2022-12-08T15:21:51.154Z,18.55
2022-12-08T15:24:18.651Z,16.92
2022-12-08T15:26:47.896Z,15.38
2022-12-08T15:29:19.720Z,14.18
2022-12-08T15:31:46.570Z,15.43
2022-12-08T15:34:13.503Z,13.25
2022-12-08T15:36:42.962Z,19.88
2022-12-08T15:39:31.469Z,13.20
2022-12-08T15:41:58.853Z,19.48
2022-12-08T15:44:25.924Z,37.13
2022-12-08T15:46:53.013Z,27.98
2022-12-08T15:49:22.510Z,23.50
2022-12-08T15:51:50.054Z,30.08
2022-12-08T15:54:17.002Z,24.20
2022-12-08T15:57:18.026Z,21.35
2022-12-08T15:59:36.980Z,22.95
2022-12-08T16:02:03.833Z,27.95
2022-12-08T16:05:18.403Z,19.48
2022-12-08T16:07:24.406Z,17.70
2022-12-08T16:09:51.878Z,14.23
2022-12-08T16:18:23.794Z,15.60
2022-12-08T16:21:13.294Z,20.15
2022-12-08T16:23:45.432Z,19.25
2022-12-08T16:29:06.661Z,18.60
2022-12-08T16:31:34.458Z,18.80
2022-12-08T16:34:01.277Z,17.23
2022-12-08T16:36:28.008Z,18.50
2022-12-08T16:38:54.713Z,15.40
2022-12-08T16:41:40.258Z,15.85
2022-12-08T16:44:07.052Z,15.05
2022-12-08T16:46:34.735Z,13.25
2022-12-08T16:49:01.867Z,19.27
2022-12-08T16:51:28.626Z,11.70
2022-12-08T16:53:56.820Z,13.32
2022-12-08T16:56:29.002Z,14.70
2022-12-08T16:59:01.184Z,16.48
2022-12-08T17:01:28.191Z,16.25
2022-12-08T17:06:41.839Z,16.75
2022-12-08T17:09:08.728Z,16.27
2022-12-08T17:11:42.306Z,20.63
2022-12-08T17:14:09.899Z,16.58
2022-12-08T17:16:36.777Z,15.27
2022-12-08T17:19:03.639Z,19.20
2022-12-08T17:21:30.347Z,15.95
2022-12-08T17:23:57.088Z,21.13
2022-12-08T17:26:23.954Z,13.73
2022-12-08T17:29:00.496Z,18.20
2022-12-08T17:31:29.882Z,16.10
2022-12-08T17:34:02.639Z,21.30
2022-12-08T17:36:29.643Z,18.65
2022-12-08T17:38:57.202Z,21.25
2022-12-08T17:41:23.999Z,20.85
2022-12-08T17:43:50.782Z,20.67
2022-12-08T17:50:17.961Z,16.48
2022-12-08T17:52:44.978Z,17.35
2022-12-08T17:55:12.476Z,23.23
2022-12-08T17:57:39.424Z,19.55
2022-12-08T18:00:07.213Z,18.25
2022-12-08T18:02:38.832Z,14.15
2022-12-08T18:05:06.480Z,17.30
2022-12-08T18:10:14.183Z,16.27
2022-12-08T18:12:40.965Z,17.02
2022-12-08T18:15:11.243Z,15.80
2022-12-08T18:17:37.909Z,19.35
2022-12-08T18:20:05.955Z,17.77
2022-12-08T18:22:32.887Z,22.50
2022-12-08T18:24:59.675Z,19.40
2022-12-08T18:27:26.373Z,21.08
2022-12-08T18:29:53.126Z,20.05
2022-12-08T18:32:23.441Z,17.30
2022-12-08T18:34:50.696Z,16.42
2022-12-08T18:37:17.453Z,20.55
2022-12-08T18:39:44.233Z,16.27
2022-12-08T18:42:23.232Z,23.15
2022-12-08T18:45:04.181Z,25.80
2022-12-08T18:47:36.318Z,19.80
2022-12-08T18:50:04.842Z,18.42
2022-12-08T18:52:32.581Z,22.13
2022-12-08T18:55:07.790Z,34.30
2022-12-08T18:57:38.233Z,57.53
2022-12-08T19:00:07.124Z,21.08
2022-12-08T19:02:34.229Z,50.67
2022-12-08T19:05:01.359Z,46.70
2022-12-08T19:07:28.208Z,32.85
2022-12-08T19:09:56.145Z,19.05
2022-12-08T19:12:22.924Z,19.67
2022-12-08T19:14:49.808Z,18.63
2022-12-08T19:17:16.673Z,18.50
2022-12-08T19:19:43.457Z,23.80
2022-12-08T19:22:10.265Z,19.73
2022-12-08T19:24:37.033Z,18.75
2022-12-08T19:27:05.235Z,18.05
2022-12-08T19:29:32.090Z,18.05
2022-12-08T19:32:00.189Z,17.65
2022-12-08T19:34:27.182Z,19.90
2022-12-08T19:36:53.921Z,20.35
2022-12-08T19:39:41.300Z,18.00
2022-12-08T19:42:37.400Z,15.05
2022-12-08T19:45:30.028Z,19.02
2022-12-08T19:47:56.940Z,19.33
2022-12-08T19:50:39.670Z,18.63
2022-12-08T19:53:14.744Z,21.90
2022-12-08T19:55:43.424Z,20.50
2022-12-08T19:58:10.619Z,20.98
2022-12-08T20:00:38.765Z,17.98
2022-12-08T20:03:06.092Z,21.33
2022-12-08T20:05:34.793Z,21.05
2022-12-08T20:08:01.533Z,20.17
2022-12-08T20:10:33.490Z,19.48
2022-12-08T20:13:19.261Z,20.52
2022-12-08T20:15:46.606Z,16.92
2022-12-08T20:18:14.473Z,19.42
2022-12-08T20:20:42.067Z,23.42
2022-12-08T20:23:08.867Z,20.63
2022-12-08T20:25:39.098Z,17.65
2022-12-08T20:28:06.144Z,17.83
2022-12-08T20:30:32.878Z,18.65
2022-12-08T20:32:59.619Z,23.40
2022-12-08T20:35:26.529Z,18.98
2022-12-08T20:37:53.329Z,18.00
2022-12-08T20:40:20.706Z,18.67
2022-12-08T20:42:47.593Z,16.88
2022-12-08T20:45:17.353Z,18.88
2022-12-08T20:47:44.095Z,18.70
2022-12-08T20:50:11.467Z,18.33
2022-12-08T20:52:38.600Z,19.50
2022-12-08T20:55:06.967Z,18.33
2022-12-08T20:57:33.845Z,22.13
2022-12-08T21:00:00.741Z,16.80
2022-12-08T21:02:28.015Z,19.30
2022-12-08T21:08:51.866Z,23.65
2022-12-08T21:11:18.949Z,22.88
2022-12-08T21:13:46.819Z,23.02
2022-12-08T21:16:15.101Z,22.58
2022-12-08T21:18:42.553Z,19.88
2022-12-08T21:21:11.618Z,20.00
2022-12-08T21:23:38.979Z,23.52
2022-12-08T21:26:14.071Z,22.40
2022-12-08T21:28:41.052Z,24.92
2022-12-08T21:31:16.467Z,20.52
2022-12-08T21:33:43.754Z,20.90
2022-12-08T21:36:19.100Z,20.88
2022-12-08T21:38:46.904Z,19.65
2022-12-08T21:41:38.743Z,20.08
2022-12-08T21:44:06.619Z,22.55
2022-12-08T21:46:33.592Z,20.55
2022-12-08T21:49:00.622Z,24.98
2022-12-08T21:51:27.746Z,18.15
2022-12-08T21:53:54.833Z,20.65
2022-12-08T21:56:22.006Z,20.48
2022-12-08T21:58:49.486Z,22.77
2022-12-08T22:01:16.555Z,21.02
2022-12-08T22:03:43.641Z,23.17
2022-12-08T22:06:12.319Z,20.58
2022-12-08T22:08:39.915Z,21.63
2022-12-08T22:11:08.073Z,18.70
2022-12-08T22:13:36.631Z,16.67
2022-12-08T22:16:06.170Z,16.27
2022-12-08T22:18:34.284Z,16.70
2022-12-08T22:21:01.283Z,14.80
2022-12-08T22:23:28.763Z,20.73
2022-12-08T22:25:59.654Z,21.90
2022-12-08T22:28:27.124Z,22.33
2022-12-08T22:30:53.907Z,20.00
2022-12-08T22:33:20.698Z,23.15
2022-12-08T22:36:04.934Z,23.42
2022-12-08T22:38:36.870Z,21.30
2022-12-08T22:41:05.057Z,20.02
2022-12-08T22:43:32.022Z,24.77
2022-12-08T22:45:58.811Z,26.08
2022-12-08T22:48:25.622Z,26.58
2022-12-08T22:50:59.152Z,23.67
2022-12-08T22:53:25.912Z,23.25
2022-12-08T22:55:52.910Z,24.08
2022-12-08T22:58:19.959Z,22.13
2022-12-08T23:00:47.453Z,33.42
2022-12-08T23:03:14.467Z,28.52
2022-12-08T23:05:41.310Z,26.70
2022-12-08T23:08:08.889Z,21.88
2022-12-08T23:10:36.270Z,21.60
2022-12-08T23:13:04.161Z,19.73
2022-12-08T23:15:31.664Z,20.10
2022-12-08T23:17:58.671Z,21.90
2022-12-08T23:20:25.741Z,18.13
2022-12-08T23:22:52.588Z,16.02
2022-12-08T23:25:19.489Z,19.90
2022-12-08T23:27:46.551Z,16.58
2022-12-08T23:30:13.988Z,18.85
2022-12-08T23:32:41.024Z,20.90
2022-12-08T23:35:08.538Z,20.60
2022-12-08T23:37:35.308Z,18.08
2022-12-08T23:40:02.091Z,23.83
2022-12-08T23:42:30.104Z,24.10
2022-12-08T23:44:57.554Z,21.50
2022-12-08T23:47:24.412Z,21.17
2022-12-08T23:49:51.191Z,23.73
2022-12-08T23:52:18.193Z,21.17
2022-12-08T23:54:45.022Z,25.00
2022-12-08T23:57:11.781Z,22.75
2022-12-08T23:59:38.713Z,24.45
